Berkeley, CA

7:03 AM PDT on August 29, 2014 (GMT -0700)
Alcatraz Ave | Change Station
CLOSE
Current Station
Personal Weather Station
Location: Oakland, CA
Elevation: 138 ft
Nearby Weather Stations

Elev 138 ft 37.85 °N, 122.26 °W | Updated 12 seconds ago

Overcast
Overcast
60.6 °F
Feels Like 60.6 °F
N
2.5
Wind Variable Wind from South
Gusts 2.5 mph

Today
High -- | Low -- °F
--% Chance of Precip.
Yesterday
High -- | Low -- °F
Precip. -- in
6:36 AM 7:42 PM
Waxing Crescent, 14% visible
Pressure 29.94 in
Visibility 10.0 miles
Clouds Overcast 600 ft
Dew Point 57 °F
Humidity 89%
Rainfall 0.00 in
Snow Depth Not available.
UV 0.0 out of 12
Pollen 7.40 out of 12
Air Quality Not available.
Flu Activity Not available.
METAR KOAK 291353Z 24005KT 10SM -DZ OVC006 16/14 A2995 RMK AO2 DZB53 SLP139 P0000 T01610139 $

More Conditions Fewer Conditions

Pressure 29.94 in
Visibility 10.0 miles
Clouds Overcast 600 ft
Dew Point 57 °F
Humidity 89%
Rainfall 0.00 in
Snow Depth Not available.
UV 0.0 out of 12
Pollen 7.40 out of 12
Air Quality Not available.
Flu Activity Not available.
METAR KOAK 291353Z 24005KT 10SM -DZ OVC006 16/14 A2995 RMK AO2 DZB53 SLP139 P0000 T01610139 $

More Conditions Fewer Conditions

10-Day Weather Forecast

Almanac

Astronomy

Aug. 29, 2014 Rise Set
Actual Time 6:36 AM PDT 7:42 PM PDT
Civil Twilight 6:09 AM PDT 8:09 PM PDT
Nautical Twilight 5:37 AM PDT 8:41 PM PDT
Astronomical Twilight 5:03 AM PDT 9:15 PM PDT
Moon 10:26 AM PDT 9:48 PM PDT
Length of Visible Light 14h 00m
Length of Day
13h 06m
Tomorrow will be 2m 19s shorter.
Waxing Crescent, 14% of the Moon is Illuminated
Today
Waxing Crescent
Sep 2
First Quarter
Sep 8
Full
Sep 15
Last Quarter
Sep 24
New

Today's Extremes

State Highs State Lows

Community

WunderPhotos

Upload Photos

1,748,240 photos uploaded!

Nearby

Air Quality

  Air Quality AQ Index Pollutant
Yesterday Good
PM2.5
Yesterday Good
OZONE
Friday Good
PM2.5
Saturday Good
PM2.5
Sunday Good
OZONE
Monday Good
OZONE
Tuesday Good
PM2.5

Snow Depth

Station Depth Elevation
Echo Peak 0 in 7800 ft
Blue Lakes 0 in 8000 ft
Forestdale Creek 0 in 8029 ft
Rubicon #2 0 in 7500 ft
Fallen Leaf 0 in 6300 ft

Earthquake Activity

City Distance Mag. Time & Date
Napa, California 26 miles 2.6 11:57 AM PDT
2014-08-27
The Geysers, California 71 miles 2.6 7:42 AM PDT
2014-08-27
Soledad, California 111 miles 2.6 12:15 PM PDT
2014-08-26
Minimum magnitude displayed is 2.5.

Coastal Water Temperatures

Place Temperature
San Francisco, CA 64.9 °F
Richmond, CA 66.9 °F
Port Chicago, CA 69.1 °F

Nearby Weather Stations